createdAt,value
2023-11-16T00:01:32.014Z,16.62
2023-11-16T00:04:03.751Z,16.60
2023-11-16T00:06:34.866Z,16.58
2023-11-16T00:09:07.187Z,16.58
2023-11-16T00:11:42.562Z,16.57
2023-11-16T00:14:14.219Z,16.57
2023-11-16T00:16:46.185Z,16.57
2023-11-16T00:19:19.800Z,16.57
2023-11-16T00:21:51.771Z,16.57
2023-11-16T00:24:26.544Z,16.57
2023-11-16T00:26:58.032Z,16.57
2023-11-16T00:29:29.456Z,16.57
2023-11-16T00:32:01.069Z,16.58
2023-11-16T00:34:32.663Z,16.58
2023-11-16T00:37:06.393Z,16.57
2023-11-16T00:39:37.582Z,16.56
2023-11-16T00:42:10.512Z,16.54
2023-11-16T00:44:42.026Z,16.51
2023-11-16T00:47:13.407Z,16.47
2023-11-16T00:49:46.266Z,16.44
2023-11-16T00:52:20.811Z,16.41
2023-11-16T00:54:52.059Z,16.39
2023-11-16T00:57:23.448Z,16.37
2023-11-16T00:59:54.962Z,16.35
2023-11-16T01:02:27.720Z,16.33
2023-11-16T01:04:59.029Z,16.30
2023-11-16T01:07:30.260Z,16.29
2023-11-16T01:10:06.798Z,16.29
2023-11-16T01:12:38.479Z,16.27
2023-11-16T01:15:12.314Z,16.25
2023-11-16T01:17:46.770Z,16.24
2023-11-16T01:20:20.985Z,16.22
2023-11-16T01:23:03.227Z,16.21
2023-11-16T01:25:35.138Z,16.20
2023-11-16T01:28:06.506Z,16.19
2023-11-16T01:30:38.018Z,16.19
2023-11-16T01:33:10.715Z,16.18
2023-11-16T01:35:43.075Z,16.18
2023-11-16T01:38:16.190Z,16.19
2023-11-16T01:40:47.356Z,16.19
2023-11-16T01:43:18.637Z,16.19
2023-11-16T01:45:51.223Z,16.19
2023-11-16T01:48:26.408Z,16.18
2023-11-16T01:50:57.640Z,16.17
2023-11-16T01:53:29.649Z,16.16
2023-11-16T01:56:01.034Z,16.16
2023-11-16T01:58:34.551Z,16.15
2023-11-16T02:01:08.295Z,16.16
2023-11-16T02:03:39.763Z,16.18
2023-11-16T02:06:12.272Z,16.18
2023-11-16T02:08:43.828Z,16.19
2023-11-16T02:11:19.664Z,16.19
2023-11-16T02:13:52.794Z,16.19
2023-11-16T02:16:25.000Z,16.19
2023-11-16T02:18:57.040Z,16.20
2023-11-16T02:21:28.466Z,16.21
2023-11-16T02:24:04.436Z,16.22
2023-11-16T02:26:37.659Z,16.23
2023-11-16T02:29:08.954Z,16.23
2023-11-16T02:31:40.120Z,16.24
2023-11-16T02:34:12.096Z,16.26
2023-11-16T02:36:43.821Z,16.27
2023-11-16T02:39:17.151Z,16.28
2023-11-16T02:41:49.173Z,16.30
2023-11-16T02:44:20.987Z,16.31
2023-11-16T02:46:52.120Z,16.32
2023-11-16T02:49:23.443Z,16.33
2023-11-16T02:51:54.934Z,16.34
2023-11-16T02:54:25.906Z,16.37
2023-11-16T02:56:56.846Z,16.38
2023-11-16T02:59:27.855Z,16.40
2023-11-16T03:01:59.680Z,16.42
2023-11-16T03:04:31.168Z,16.42
2023-11-16T03:07:02.695Z,16.45
2023-11-16T03:09:33.942Z,16.46
2023-11-16T03:12:06.611Z,16.47
2023-11-16T03:14:38.165Z,16.47
2023-11-16T03:17:12.605Z,16.48
2023-11-16T03:19:45.059Z,16.49
2023-11-16T03:22:16.472Z,16.51
2023-11-16T03:24:47.745Z,16.52
2023-11-16T03:27:19.321Z,16.55
2023-11-16T03:29:58.000Z,16.56
2023-11-16T03:32:30.908Z,16.56
2023-11-16T03:35:04.149Z,16.55
2023-11-16T03:37:35.620Z,16.55
2023-11-16T03:40:08.737Z,16.55
2023-11-16T03:42:40.119Z,16.54
2023-11-16T03:45:13.572Z,16.55
2023-11-16T03:47:44.867Z,16.54
2023-11-16T03:50:16.162Z,16.52
2023-11-16T03:52:47.691Z,16.51
2023-11-16T03:55:19.584Z,16.49
2023-11-16T03:57:50.717Z,16.49
2023-11-16T04:00:25.353Z,16.48
2023-11-16T04:02:59.733Z,16.46
2023-11-16T04:05:31.898Z,16.46
2023-11-16T04:08:04.485Z,16.46
2023-11-16T04:10:35.557Z,16.45
2023-11-16T04:13:08.208Z,16.43
2023-11-16T04:15:40.257Z,16.41
2023-11-16T04:18:12.144Z,16.40
2023-11-16T04:20:43.478Z,16.40
2023-11-16T04:23:15.165Z,16.38
2023-11-16T04:25:46.862Z,16.37
2023-11-16T04:28:20.830Z,16.36
2023-11-16T04:30:53.116Z,16.34
2023-11-16T04:33:24.710Z,16.33
2023-11-16T04:35:57.215Z,16.32
2023-11-16T04:38:28.969Z,16.31
2023-11-16T04:41:00.204Z,16.31
2023-11-16T04:43:32.156Z,16.31
2023-11-16T04:46:05.481Z,16.30
2023-11-16T04:48:36.819Z,16.31
2023-11-16T04:51:09.573Z,16.30
2023-11-16T04:53:41.269Z,16.30
2023-11-16T04:56:13.107Z,16.30
2023-11-16T04:58:46.472Z,16.30
2023-11-16T05:01:18.381Z,16.30
2023-11-16T05:03:49.849Z,16.30
2023-11-16T05:06:21.172Z,16.30
2023-11-16T05:08:53.211Z,16.30
2023-11-16T05:11:27.874Z,16.28
2023-11-16T05:13:59.552Z,16.28
2023-11-16T05:16:30.893Z,16.28
2023-11-16T05:19:02.103Z,16.27
2023-11-16T05:21:33.323Z,16.26
2023-11-16T05:24:05.159Z,16.26
2023-11-16T05:26:39.193Z,16.25
2023-11-16T05:29:10.253Z,16.25
2023-11-16T05:31:41.615Z,16.24
2023-11-16T05:34:14.529Z,16.23
2023-11-16T05:36:47.545Z,16.19
2023-11-16T05:39:21.047Z,16.19
2023-11-16T05:41:52.427Z,16.41
2023-11-16T05:44:23.809Z,16.73
2023-11-16T05:46:55.111Z,17.09
2023-11-16T05:49:32.816Z,17.39
2023-11-16T05:52:04.563Z,17.64
2023-11-16T05:54:36.077Z,17.84
2023-11-16T05:57:08.022Z,18.01
2023-11-16T05:59:39.192Z,18.14
2023-11-16T06:02:10.916Z,18.25
2023-11-16T06:04:43.640Z,18.36
2023-11-16T06:07:15.000Z,18.44
2023-11-16T06:09:46.043Z,18.50
2023-11-16T06:12:19.778Z,18.56
2023-11-16T06:14:56.773Z,18.61
2023-11-16T06:17:27.767Z,18.64
2023-11-16T06:19:59.147Z,18.67
2023-11-16T06:22:30.134Z,18.66
2023-11-16T06:25:06.101Z,18.64
2023-11-16T06:27:38.436Z,18.63
2023-11-16T06:30:14.075Z,18.64
2023-11-16T06:32:46.358Z,18.67
2023-11-16T06:35:17.560Z,18.71
2023-11-16T06:37:52.223Z,18.73
2023-11-16T06:40:23.979Z,18.75
2023-11-16T06:42:55.169Z,18.77
2023-11-16T06:45:28.477Z,18.78
2023-11-16T06:48:01.842Z,18.77
2023-11-16T06:50:35.327Z,18.76
2023-11-16T06:53:07.631Z,18.75
2023-11-16T06:55:41.110Z,18.74
2023-11-16T06:58:12.193Z,18.71
2023-11-16T07:00:45.446Z,18.71
2023-11-16T07:03:17.077Z,18.69
2023-11-16T07:05:48.399Z,18.72
2023-11-16T07:08:19.752Z,18.75
2023-11-16T07:10:51.251Z,18.76
2023-11-16T07:13:24.262Z,18.78
2023-11-16T07:15:55.214Z,18.77
2023-11-16T07:18:28.030Z,18.71
2023-11-16T07:20:59.417Z,18.66
2023-11-16T07:23:31.357Z,18.62
2023-11-16T07:26:08.134Z,18.59
2023-11-16T07:28:40.054Z,18.56
2023-11-16T07:31:17.510Z,18.53
2023-11-16T07:33:53.152Z,18.52
2023-11-16T07:36:28.121Z,18.50
2023-11-16T07:39:03.232Z,18.50
2023-11-16T07:41:35.235Z,18.51
2023-11-16T07:44:07.131Z,18.51
2023-11-16T07:46:38.352Z,18.49
2023-11-16T07:49:10.349Z,18.51
2023-11-16T07:51:42.213Z,18.53
2023-11-16T07:54:15.522Z,18.52
2023-11-16T07:56:56.437Z,18.44
2023-11-16T07:59:32.673Z,18.36
2023-11-16T08:02:04.397Z,18.32
2023-11-16T08:04:36.484Z,18.30
2023-11-16T08:07:08.426Z,18.28
2023-11-16T08:09:39.932Z,18.26
2023-11-16T08:12:12.080Z,18.25
2023-11-16T08:14:43.511Z,18.24
2023-11-16T08:17:17.719Z,18.26
2023-11-16T08:19:50.991Z,18.27
2023-11-16T08:22:23.624Z,18.30
2023-11-16T08:24:56.168Z,18.32
2023-11-16T08:27:28.175Z,18.36
2023-11-16T08:29:59.604Z,18.47
2023-11-16T08:32:30.729Z,18.67
2023-11-16T08:35:02.429Z,18.96
2023-11-16T08:37:34.924Z,19.30
2023-11-16T08:40:07.854Z,19.51
2023-11-16T08:42:42.820Z,19.59
2023-11-16T08:45:21.338Z,19.61
2023-11-16T08:47:54.239Z,19.60
2023-11-16T08:50:25.538Z,19.58
2023-11-16T08:52:58.398Z,19.54
2023-11-16T08:55:30.345Z,19.49
2023-11-16T08:58:01.576Z,19.46
2023-11-16T09:00:34.945Z,19.52
2023-11-16T09:03:09.684Z,19.58
2023-11-16T09:05:41.995Z,19.59
2023-11-16T09:08:14.618Z,19.59
2023-11-16T09:10:46.343Z,19.61
2023-11-16T09:13:17.983Z,19.62
2023-11-16T09:15:50.596Z,19.62
2023-11-16T09:18:25.046Z,19.61
2023-11-16T09:20:57.871Z,19.60
2023-11-16T09:23:30.531Z,19.58
2023-11-16T09:26:03.637Z,19.57
2023-11-16T09:28:38.058Z,19.54
2023-11-16T09:31:13.550Z,19.51
2023-11-16T09:33:44.756Z,19.50
2023-11-16T09:36:16.252Z,19.50
2023-11-16T09:38:47.601Z,19.50
2023-11-16T09:41:26.888Z,19.50
2023-11-16T09:44:07.332Z,19.49
2023-11-16T09:46:39.957Z,19.46
2023-11-16T09:49:12.098Z,19.45
2023-11-16T09:51:44.791Z,19.43
2023-11-16T09:54:22.289Z,19.41
2023-11-16T09:56:55.910Z,19.38
2023-11-16T09:59:35.892Z,19.34
2023-11-16T10:02:12.092Z,19.30
2023-11-16T10:04:44.994Z,19.25
2023-11-16T10:07:18.229Z,19.22
2023-11-16T10:09:54.384Z,19.19
2023-11-16T10:12:26.934Z,19.16
2023-11-16T10:14:57.978Z,19.13
2023-11-16T10:17:29.360Z,19.10
2023-11-16T10:20:00.610Z,19.07
2023-11-16T10:22:31.591Z,19.03
2023-11-16T10:25:03.290Z,19.00
2023-11-16T10:27:37.760Z,18.99
2023-11-16T10:30:15.159Z,18.97
2023-11-16T10:32:48.676Z,18.96
2023-11-16T10:35:20.038Z,18.95
2023-11-16T10:37:52.274Z,18.94
2023-11-16T10:40:24.692Z,18.93
2023-11-16T10:42:57.960Z,18.92
2023-11-16T10:45:30.034Z,18.91
2023-11-16T10:48:01.295Z,18.91
2023-11-16T10:50:33.669Z,18.90
2023-11-16T10:53:10.613Z,18.90
2023-11-16T10:55:43.539Z,18.90
2023-11-16T10:58:22.122Z,18.90
2023-11-16T11:00:54.849Z,18.89
2023-11-16T11:03:26.323Z,18.88
2023-11-16T11:06:01.940Z,18.86
2023-11-16T11:08:44.145Z,18.85
2023-11-16T11:11:16.318Z,18.84
2023-11-16T11:13:48.261Z,18.83
2023-11-16T11:16:20.055Z,18.83
2023-11-16T11:18:53.284Z,18.81
2023-11-16T11:21:28.028Z,18.79
2023-11-16T11:24:06.432Z,18.80
2023-11-16T11:26:46.075Z,18.79
2023-11-16T11:29:17.378Z,18.80
2023-11-16T11:32:02.982Z,18.81
2023-11-16T11:34:38.312Z,18.83
2023-11-16T11:37:15.454Z,18.82
2023-11-16T11:39:51.083Z,18.83
2023-11-16T11:42:26.139Z,18.83
2023-11-16T11:44:58.981Z,18.86
2023-11-16T11:47:30.175Z,18.89
2023-11-16T11:50:03.077Z,18.92
2023-11-16T11:52:36.040Z,18.96
2023-11-16T11:55:10.350Z,19.00
2023-11-16T11:57:42.727Z,19.06
2023-11-16T12:00:17.521Z,19.14
2023-11-16T12:02:50.439Z,19.23
2023-11-16T12:05:22.758Z,19.33
2023-11-16T12:08:04.009Z,19.40
2023-11-16T12:10:35.555Z,19.46
2023-11-16T12:13:08.805Z,19.47
2023-11-16T12:15:40.117Z,19.47
2023-11-16T12:18:15.507Z,19.46
2023-11-16T12:20:51.446Z,19.46
2023-11-16T12:23:23.121Z,19.40
2023-11-16T12:25:54.231Z,19.33
2023-11-16T12:28:29.104Z,19.24
2023-11-16T12:31:02.902Z,19.12
2023-11-16T12:33:34.192Z,19.06
2023-11-16T12:36:06.849Z,19.01
2023-11-16T12:38:39.653Z,18.98
2023-11-16T12:41:11.614Z,18.91
2023-11-16T12:43:42.904Z,18.86
2023-11-16T12:46:15.572Z,18.84
2023-11-16T12:48:46.847Z,18.79
2023-11-16T12:51:21.015Z,18.75
2023-11-16T12:53:52.509Z,18.70
2023-11-16T12:56:23.586Z,18.66
2023-11-16T12:58:55.129Z,18.61
2023-11-16T13:01:26.267Z,18.58
2023-11-16T13:03:57.830Z,18.54
2023-11-16T13:06:29.170Z,18.51
2023-11-16T13:09:00.137Z,18.48
2023-11-16T13:11:31.611Z,18.46
2023-11-16T13:14:02.641Z,18.45
2023-11-16T13:16:34.933Z,18.44
2023-11-16T13:19:08.347Z,18.43
2023-11-16T13:21:39.489Z,18.43
2023-11-16T13:24:11.477Z,18.43
2023-11-16T13:26:42.544Z,18.44
2023-11-16T13:29:14.070Z,18.43
2023-11-16T13:31:45.329Z,18.42
2023-11-16T13:34:17.237Z,18.42
2023-11-16T13:36:49.067Z,18.43
2023-11-16T13:39:20.957Z,18.43
2023-11-16T13:41:52.084Z,18.43
2023-11-16T13:44:23.379Z,18.43
2023-11-16T13:46:54.871Z,18.42
2023-11-16T13:49:30.082Z,18.42
2023-11-16T13:52:05.186Z,18.41
2023-11-16T13:54:36.923Z,18.40
2023-11-16T13:57:08.417Z,18.40
2023-11-16T13:59:39.605Z,18.41
2023-11-16T14:02:11.549Z,18.41
2023-11-16T14:04:42.805Z,18.40
2023-11-16T14:07:14.689Z,18.39
2023-11-16T14:09:45.974Z,18.37
2023-11-16T14:12:17.163Z,18.37
2023-11-16T14:14:48.567Z,18.35
2023-11-16T14:17:22.218Z,18.33
2023-11-16T14:19:53.419Z,18.31
2023-11-16T14:22:25.074Z,18.29
2023-11-16T14:24:56.234Z,18.28
2023-11-16T14:27:27.486Z,18.27
2023-11-16T14:29:58.689Z,18.27
2023-11-16T14:32:30.990Z,18.27
2023-11-16T14:35:14.326Z,18.26
2023-11-16T14:37:51.784Z,18.27
2023-11-16T14:40:23.491Z,18.27
2023-11-16T14:42:54.873Z,18.28
2023-11-16T14:45:28.899Z,18.30
2023-11-16T14:48:01.258Z,18.32
2023-11-16T14:50:32.367Z,18.33
2023-11-16T14:53:08.173Z,18.36
2023-11-16T14:55:40.374Z,18.38
2023-11-16T14:58:11.676Z,18.40
2023-11-16T15:00:42.939Z,18.41
2023-11-16T15:03:13.925Z,18.43
2023-11-16T15:05:45.069Z,18.45
2023-11-16T15:08:18.734Z,18.49
2023-11-16T15:10:49.895Z,18.57
2023-11-16T15:13:20.900Z,18.59
2023-11-16T15:15:52.105Z,18.59
2023-11-16T15:18:23.492Z,18.59
2023-11-16T15:20:54.710Z,18.59
2023-11-16T15:23:26.486Z,18.59
2023-11-16T15:25:58.069Z,18.60
2023-11-16T15:28:29.623Z,18.59
2023-11-16T15:31:01.885Z,18.56
2023-11-16T15:33:33.581Z,18.53
2023-11-16T15:36:06.043Z,18.49
2023-11-16T15:38:37.219Z,18.48
2023-11-16T15:41:09.442Z,18.47
2023-11-16T15:43:40.879Z,18.46
2023-11-16T15:46:15.862Z,18.46
2023-11-16T15:48:47.443Z,18.45
2023-11-16T15:51:19.006Z,18.45
2023-11-16T15:53:52.336Z,18.43
2023-11-16T15:56:26.053Z,18.37
2023-11-16T15:58:58.121Z,18.31
2023-11-16T16:01:30.552Z,18.27
2023-11-16T16:04:04.366Z,18.20
2023-11-16T16:06:39.678Z,18.13
2023-11-16T16:09:11.137Z,18.07
2023-11-16T16:11:42.388Z,18.04
2023-11-16T16:14:13.926Z,18.02
2023-11-16T16:16:45.303Z,17.97
2023-11-16T16:19:16.835Z,17.95
2023-11-16T16:21:49.644Z,17.93
2023-11-16T16:24:20.664Z,17.89
2023-11-16T16:26:52.004Z,17.86
2023-11-16T16:29:23.350Z,17.84
2023-11-16T16:31:54.633Z,17.83
2023-11-16T16:34:34.071Z,17.84
2023-11-16T16:37:06.289Z,17.84
2023-11-16T16:39:38.429Z,17.84
2023-11-16T16:42:11.253Z,17.83
2023-11-16T16:44:42.456Z,17.84
2023-11-16T16:47:15.851Z,17.82
2023-11-16T16:49:47.147Z,17.80
2023-11-16T16:52:20.338Z,17.79
2023-11-16T16:54:51.743Z,17.79
2023-11-16T16:57:23.155Z,17.78
2023-11-16T16:59:54.573Z,17.76
2023-11-16T17:02:28.114Z,17.74
2023-11-16T17:04:59.260Z,17.73
2023-11-16T17:07:30.709Z,17.71
2023-11-16T17:10:03.328Z,17.69
2023-11-16T17:12:34.546Z,17.67
2023-11-16T17:15:06.638Z,17.65
2023-11-16T17:17:38.237Z,17.64
2023-11-16T17:20:15.170Z,17.63
2023-11-16T17:22:46.339Z,17.61
2023-11-16T17:25:17.630Z,17.57
2023-11-16T17:27:51.164Z,17.55
2023-11-16T17:30:22.557Z,17.53
2023-11-16T17:32:53.738Z,17.52
2023-11-16T17:35:25.106Z,17.50
2023-11-16T17:37:56.063Z,17.49
2023-11-16T17:40:28.763Z,17.46
2023-11-16T17:43:00.226Z,17.45
2023-11-16T17:45:31.602Z,17.43
2023-11-16T17:48:03.292Z,17.42
2023-11-16T17:50:36.810Z,17.41
2023-11-16T17:53:08.142Z,17.41
2023-11-16T17:55:39.367Z,17.40
2023-11-16T17:58:10.938Z,17.39
2023-11-16T18:00:42.637Z,17.38
2023-11-16T18:03:13.935Z,17.38
2023-11-16T18:05:47.014Z,17.36
2023-11-16T18:08:18.371Z,17.36
2023-11-16T18:10:55.260Z,17.34
2023-11-16T18:13:27.038Z,17.32
2023-11-16T18:15:58.591Z,17.29
2023-11-16T18:18:31.192Z,17.27
2023-11-16T18:21:02.528Z,17.24
2023-11-16T18:23:33.667Z,17.22
2023-11-16T18:26:05.126Z,17.20
2023-11-16T18:28:37.021Z,17.18
2023-11-16T18:31:12.100Z,17.16
2023-11-16T18:33:47.673Z,17.16
2023-11-16T18:36:20.924Z,17.14
2023-11-16T18:38:52.288Z,17.14
2023-11-16T18:41:23.778Z,17.13
2023-11-16T18:43:54.940Z,17.13
2023-11-16T18:46:28.011Z,17.11
2023-11-16T18:48:59.538Z,17.09
2023-11-16T18:51:31.948Z,17.06
2023-11-16T18:54:03.749Z,17.03
2023-11-16T18:56:35.268Z,17.00
2023-11-16T18:59:06.838Z,16.96
2023-11-16T19:01:38.198Z,16.94
2023-11-16T19:04:10.576Z,16.92
2023-11-16T19:06:43.158Z,16.92
2023-11-16T19:09:15.120Z,16.92
2023-11-16T19:11:46.791Z,16.91
2023-11-16T19:14:20.965Z,16.90
2023-11-16T19:16:52.361Z,16.88
2023-11-16T19:19:24.290Z,16.86
2023-11-16T19:21:56.585Z,16.84
2023-11-16T19:24:27.885Z,16.83
2023-11-16T19:26:59.044Z,16.81
2023-11-16T19:29:31.404Z,16.79
2023-11-16T19:32:07.377Z,16.78
2023-11-16T19:34:38.696Z,16.76
2023-11-16T19:37:09.812Z,16.75
2023-11-16T19:39:45.771Z,16.73
2023-11-16T19:42:18.518Z,16.71
2023-11-16T19:44:49.683Z,16.69
2023-11-16T19:47:25.862Z,16.67
2023-11-16T19:50:08.532Z,16.67
2023-11-16T19:52:40.420Z,16.66
2023-11-16T19:55:15.441Z,16.65
2023-11-16T19:57:46.903Z,16.64
2023-11-16T20:00:23.880Z,16.63
2023-11-16T20:02:57.578Z,16.62
2023-11-16T20:05:28.651Z,16.66
2023-11-16T20:07:59.649Z,16.66
2023-11-16T20:10:31.744Z,16.67
2023-11-16T20:13:04.010Z,16.67
2023-11-16T20:15:35.864Z,16.67
2023-11-16T20:18:07.502Z,16.68
2023-11-16T20:20:48.291Z,16.67
2023-11-16T20:23:27.845Z,16.66
2023-11-16T20:25:59.071Z,16.66
2023-11-16T20:28:32.234Z,16.64
2023-11-16T20:31:04.948Z,16.62
2023-11-16T20:33:36.815Z,16.89
2023-11-16T20:36:11.611Z,17.30
2023-11-16T20:38:44.890Z,17.72
2023-11-16T20:41:15.749Z,18.11
2023-11-16T20:43:46.855Z,18.23
2023-11-16T20:46:20.820Z,18.06
2023-11-16T20:48:52.391Z,17.85
2023-11-16T20:51:23.720Z,17.65
2023-11-16T20:53:56.110Z,17.46
2023-11-16T20:56:27.053Z,17.29
2023-11-16T20:58:58.273Z,17.16
2023-11-16T21:01:29.688Z,17.02
2023-11-16T21:04:04.956Z,16.90
2023-11-16T21:06:38.233Z,16.79
2023-11-16T21:09:10.831Z,16.70
2023-11-16T21:11:42.014Z,16.62
2023-11-16T21:14:12.982Z,16.56
2023-11-16T21:16:44.254Z,16.50
2023-11-16T21:19:15.358Z,16.45
2023-11-16T21:21:46.782Z,16.40
2023-11-16T21:24:17.968Z,16.35
2023-11-16T21:26:49.618Z,16.30
2023-11-16T21:29:23.232Z,16.26
2023-11-16T21:31:54.464Z,16.23
2023-11-16T21:34:25.581Z,16.19
2023-11-16T21:36:57.807Z,16.15
2023-11-16T21:39:29.509Z,16.11
2023-11-16T21:42:02.530Z,16.08
2023-11-16T21:44:34.092Z,16.04
2023-11-16T21:47:06.370Z,16.01
2023-11-16T21:49:37.364Z,15.96
2023-11-16T21:52:09.156Z,15.93
2023-11-16T21:54:41.617Z,15.91
2023-11-16T21:57:12.849Z,15.88
2023-11-16T21:59:43.990Z,15.84
2023-11-16T22:02:17.636Z,15.82
2023-11-16T22:04:49.865Z,15.80
2023-11-16T22:07:21.609Z,15.78
2023-11-16T22:09:52.786Z,15.76
2023-11-16T22:12:24.398Z,15.73
2023-11-16T22:14:55.871Z,15.74
2023-11-16T22:17:26.945Z,15.75
2023-11-16T22:20:00.909Z,15.75
2023-11-16T22:22:31.849Z,15.76
2023-11-16T22:25:03.166Z,15.77
2023-11-16T22:27:34.275Z,15.77
2023-11-16T22:30:06.767Z,15.76
2023-11-16T22:32:40.866Z,15.76
2023-11-16T22:35:13.907Z,15.77
2023-11-16T22:37:47.530Z,15.77
2023-11-16T22:40:21.239Z,15.78
2023-11-16T22:42:52.945Z,15.79
2023-11-16T22:45:26.329Z,15.80
2023-11-16T22:47:57.757Z,15.81
2023-11-16T22:50:29.686Z,15.82
2023-11-16T22:53:01.145Z,15.82
2023-11-16T22:55:32.564Z,15.82
2023-11-16T22:58:03.937Z,15.83
2023-11-16T23:00:47.489Z,15.84
2023-11-16T23:03:19.227Z,15.87
2023-11-16T23:05:53.121Z,15.89
2023-11-16T23:08:24.430Z,15.89
2023-11-16T23:10:55.747Z,15.89
2023-11-16T23:13:26.906Z,15.90
2023-11-16T23:15:57.853Z,15.90
2023-11-16T23:18:29.149Z,15.91
2023-11-16T23:21:02.421Z,15.90
2023-11-16T23:23:33.840Z,15.90
2023-11-16T23:26:06.189Z,15.89
2023-11-16T23:28:37.862Z,15.88
2023-11-16T23:31:11.719Z,15.88
2023-11-16T23:33:44.645Z,15.89
2023-11-16T23:36:17.492Z,15.91
2023-11-16T23:38:48.574Z,15.92
2023-11-16T23:41:23.581Z,15.93
2023-11-16T23:43:55.426Z,15.93
2023-11-16T23:46:37.803Z,15.93
2023-11-16T23:49:09.557Z,15.93
2023-11-16T23:51:40.988Z,15.93
2023-11-16T23:54:12.973Z,15.92
2023-11-16T23:56:44.876Z,15.92
2023-11-16T23:59:16.515Z,15.93
